Time;durP1;ratioP1;P1;durP2;ratioP2;P2;SDS_P1;SDS_P2;PMS_P1;PMS_P2;Temp;Humidity;BMP_temperature;BMP_pressure;BME280_temperature;BME280_humidity;BME280_pressure;Samples;Min_cycle;Max_cycle;Signal;HPM_P1;HPM_P2
2023/08/04 00:02:24;;;;;;;0.30;0.30;;;;;;;16.08;100.00;98245.13;106993;1275;22755;-51
2023/08/04 00:04:54;;;;;;;0.60;0.40;;;;;;;16.12;100.00;98242.48;106828;1270;99514;-51
2023/08/04 00:07:26;;;;;;;2.10;0.50;;;;;;;16.18;100.00;98250.53;106893;1260;24186;-53
2023/08/04 00:09:55;;;;;;;1.10;0.90;;;;;;;16.21;100.00;98254.20;106899;1267;23884;-53
2023/08/04 00:12:24;;;;;;;0.30;0.30;;;;;;;16.23;100.00;98254.52;106905;1266;99773;-52
2023/08/04 00:14:53;;;;;;;0.70;0.30;;;;;;;16.25;100.00;98253.72;107021;1269;24239;-54
2023/08/04 00:17:22;;;;;;;0.30;0.30;;;;;;;16.23;100.00;98250.67;106856;1254;99386;-52
2023/08/04 00:19:50;;;;;;;0.70;0.40;;;;;;;16.19;100.00;98254.40;106891;1269;22873;-52
2023/08/04 00:22:19;;;;;;;1.70;0.40;;;;;;;16.16;100.00;98252.41;106749;1266;99480;-52
2023/08/04 00:24:48;;;;;;;0.60;0.60;;;;;;;16.15;100.00;98256.21;107027;1270;22524;-55
2023/08/04 00:27:16;;;;;;;0.50;0.50;;;;;;;16.17;100.00;98260.39;106910;1263;25841;-51
2023/08/04 00:29:45;;;;;;;2.40;0.50;;;;;;;16.19;100.00;98263.41;106881;1275;99230;-55
2023/08/04 00:32:14;;;;;;;0.70;0.40;;;;;;;16.17;100.00;98272.18;106901;1269;22569;-52
2023/08/04 00:34:45;;;;;;;0.90;0.50;;;;;;;16.15;100.00;98272.14;106981;1266;99865;-53
2023/08/04 00:37:14;;;;;;;0.30;0.30;;;;;;;16.11;100.00;98270.75;106913;1267;25473;-55
2023/08/04 00:39:43;;;;;;;0.40;0.40;;;;;;;16.14;100.00;98271.44;106853;1275;22531;-50
2023/08/04 00:42:12;;;;;;;0.60;0.40;;;;;;;16.14;100.00;98271.39;106867;1262;99381;-51
2023/08/04 00:44:44;;;;;;;1.00;0.50;;;;;;;16.13;100.00;98280.09;107085;1267;25418;-52
2023/08/04 00:47:13;;;;;;;1.50;0.60;;;;;;;16.12;100.00;98281.26;106840;1268;99286;-51
2023/08/04 00:49:43;;;;;;;1.30;0.60;;;;;;;16.13;100.00;98285.48;106878;1269;22536;-53
2023/08/04 00:52:16;;;;;;;0.80;0.60;;;;;;;16.11;100.00;98287.98;107067;1266;25472;-52
2023/08/04 00:54:46;;;;;;;0.50;0.50;;;;;;;16.18;100.00;98294.85;106881;1268;25278;-50
2023/08/04 00:57:19;;;;;;;1.50;0.60;;;;;;;16.23;100.00;98295.45;106857;1265;22528;-54
2023/08/04 00:59:49;;;;;;;3.30;0.50;;;;;;;16.27;100.00;98294.91;106781;1269;99635;-50
2023/08/04 01:02:18;;;;;;;1.10;0.40;;;;;;;16.30;100.00;98298.10;110655;1263;22066;-51
2023/08/04 01:04:46;;;;;;;1.40;0.40;;;;;;;16.34;100.00;98303.39;110635;1270;99422;-51
2023/08/04 01:07:18;;;;;;;0.80;0.40;;;;;;;16.38;100.00;98305.52;108241;1266;25268;-51
2023/08/04 01:09:56;;;;;;;1.60;0.50;;;;;;;16.42;100.00;98307.41;106958;1272;22588;-52
2023/08/04 01:12:35;;;;;;;0.80;0.40;;;;;;;16.47;100.00;98306.11;107012;1270;99317;-52
2023/08/04 01:15:06;;;;;;;0.70;0.50;;;;;;;16.50;100.00;98308.27;106896;1272;22558;-52
2023/08/04 01:17:35;;;;;;;0.40;0.40;;;;;;;16.53;100.00;98313.77;106898;1266;99412;-51
2023/08/04 01:20:07;;;;;;;0.30;0.30;;;;;;;16.53;100.00;98317.65;106990;1266;24255;-53
2023/08/04 01:22:39;;;;;;;1.30;0.50;;;;;;;16.51;100.00;98317.45;106903;1272;99456;-52
2023/08/04 01:25:09;;;;;;;0.60;0.50;;;;;;;16.53;100.00;98316.04;106939;1266;24507;-56
2023/08/04 01:27:42;;;;;;;1.60;0.50;;;;;;;16.54;100.00;98310.02;107055;1270;24253;-53
2023/08/04 01:30:16;;;;;;;0.70;0.40;;;;;;;16.53;100.00;98314.98;106859;1267;99423;-54
2023/08/04 01:32:48;;;;;;;0.70;0.50;;;;;;;16.55;100.00;98319.21;106849;1266;22514;-52
2023/08/04 01:35:33;;;;;;;0.40;0.40;;;;;;;16.56;100.00;98321.34;106835;1269;99776;-53
2023/08/04 01:38:01;;;;;;;0.40;0.30;;;;;;;16.58;100.00;98327.70;106956;1266;25511;-56
2023/08/04 01:40:33;;;;;;;0.90;0.50;;;;;;;16.59;100.00;98327.21;106906;1270;99462;-55
2023/08/04 01:43:04;;;;;;;0.70;0.40;;;;;;;16.61;100.00;98335.31;106884;1269;23570;-56
2023/08/04 01:45:33;;;;;;;0.60;0.40;;;;;;;16.63;100.00;98339.16;106903;1269;25424;-52
2023/08/04 01:48:02;;;;;;;0.90;0.50;;;;;;;16.67;100.00;98340.90;106834;1267;99354;-54
2023/08/04 01:50:34;;;;;;;0.60;0.50;;;;;;;16.67;100.00;98344.88;106959;1272;25335;-56
2023/08/04 01:53:03;;;;;;;0.50;0.40;;;;;;;16.69;100.00;98347.77;106959;1267;99472;-52
2023/08/04 01:55:32;;;;;;;1.60;0.30;;;;;;;16.69;100.00;98349.81;106843;1271;24340;-53
2023/08/04 01:58:01;;;;;;;1.10;0.50;;;;;;;16.71;100.00;98354.41;107013;1269;24208;-53
2023/08/04 02:00:30;;;;;;;0.50;0.50;;;;;;;16.71;100.00;98356.48;106896;1267;99455;-52
2023/08/04 02:02:59;;;;;;;1.20;0.60;;;;;;;16.68;100.00;98352.36;107071;1267;22507;-54
2023/08/04 02:05:32;;;;;;;1.80;0.40;;;;;;;16.62;100.00;98358.60;106833;1267;102679;-51
2023/08/04 02:08:01;;;;;;;0.40;0.40;;;;;;;16.62;100.00;98365.06;106976;1273;24891;-54
2023/08/04 02:10:33;;;;;;;0.50;0.50;;;;;;;16.60;100.00;98370.73;106874;1274;99470;-55
2023/08/04 02:13:04;;;;;;;0.60;0.50;;;;;;;16.63;100.00;98374.63;107033;1270;24315;-57
2023/08/04 02:15:35;;;;;;;0.40;0.40;;;;;;;16.64;100.00;98379.06;106982;1267;25348;-54
2023/08/04 02:18:08;;;;;;;1.80;0.50;;;;;;;16.66;100.00;98383.79;106909;1268;100789;-52
2023/08/04 02:20:42;;;;;;;0.50;0.40;;;;;;;16.68;100.00;98385.96;106864;1268;25325;-50
2023/08/04 02:23:11;;;;;;;1.00;0.40;;;;;;;16.69;100.00;98387.37;106942;1269;99789;-56
2023/08/04 02:25:40;;;;;;;0.70;0.60;;;;;;;16.68;100.00;98388.40;107082;1271;22524;-53
2023/08/04 02:28:15;;;;;;;2.60;0.70;;;;;;;16.68;100.00;98393.14;106992;1267;22595;-54
2023/08/04 02:30:46;;;;;;;1.30;0.50;;;;;;;16.69;100.00;98392.90;106954;1271;24244;-51
2023/08/04 02:33:16;;;;;;;1.40;0.60;;;;;;;16.69;100.00;98398.48;107035;1270;25230;-53
2023/08/04 02:35:58;;;;;;;0.40;0.40;;;;;;;16.71;100.00;98400.20;107000;1266;99801;-53
2023/08/04 02:38:26;;;;;;;0.40;0.40;;;;;;;16.72;100.00;98404.92;106951;1267;22535;-55
2023/08/04 02:41:05;;;;;;;0.70;0.60;;;;;;;16.70;100.00;98408.03;106930;1265;99468;-52
2023/08/04 02:43:37;;;;;;;0.40;0.40;;;;;;;16.68;100.00;98408.27;106788;1272;23874;-53
2023/08/04 02:46:06;;;;;;;0.40;0.40;;;;;;;16.61;100.00;98411.50;106956;1267;23870;-52
2023/08/04 02:48:35;;;;;;;0.70;0.50;;;;;;;16.64;100.00;98408.30;106790;1267;99224;-55
2023/08/04 02:51:06;;;;;;;0.50;0.40;;;;;;;16.64;100.00;98414.30;107229;1272;22899;-53
2023/08/04 02:53:37;;;;;;;1.40;0.60;;;;;;;16.63;100.00;98414.52;106880;1261;99189;-53
2023/08/04 02:56:11;;;;;;;1.40;0.50;;;;;;;16.66;100.00;98415.13;106945;1270;25272;-52
2023/08/04 02:58:45;;;;;;;0.70;0.50;;;;;;;16.65;100.00;98419.10;106933;1266;99447;-52
2023/08/04 03:01:14;;;;;;;2.20;0.40;;;;;;;16.61;100.00;98421.52;106888;1272;22722;-52
2023/08/04 03:03:43;;;;;;;0.60;0.50;;;;;;;16.60;100.00;98425.38;107167;1267;22728;-51
2023/08/04 03:06:12;;;;;;;0.60;0.60;;;;;;;16.57;100.00;98421.75;107093;1267;99297;-58
2023/08/04 03:08:41;;;;;;;1.50;0.60;;;;;;;16.54;100.00;98418.30;106896;1272;22554;-55
2023/08/04 03:11:11;;;;;;;1.80;0.60;;;;;;;16.52;100.00;98418.36;106883;1268;99558;-55
2023/08/04 03:13:40;;;;;;;2.90;1.90;;;;;;;16.53;100.00;98421.80;107034;1271;22532;-52
2023/08/04 03:16:08;;;;;;;0.70;0.50;;;;;;;16.54;100.00;98425.91;107027;1269;24209;-54
2023/08/04 03:18:40;;;;;;;0.80;0.50;;;;;;;16.57;100.00;98424.89;106916;1273;99100;-52
2023/08/04 03:21:09;;;;;;;3.90;0.80;;;;;;;16.59;100.00;98426.82;107014;1269;25433;-53
2023/08/04 03:23:38;;;;;;;9.80;2.30;;;;;;;16.62;100.00;98424.09;106837;1266;99509;-52
2023/08/04 03:26:07;;;;;;;1.50;0.60;;;;;;;16.63;100.00;98430.16;106989;1273;25377;-51
2023/08/04 03:28:36;;;;;;;0.60;0.60;;;;;;;16.64;100.00;98430.22;106969;1272;99600;-55
2023/08/04 03:31:04;;;;;;;1.10;0.50;;;;;;;16.66;100.00;98430.27;107168;1267;25230;-52
2023/08/04 03:33:34;;;;;;;0.70;0.70;;;;;;;16.69;100.00;98432.73;107055;1266;24181;-54
2023/08/04 03:36:04;;;;;;;1.50;0.50;;;;;;;16.73;100.00;98440.80;106944;1273;99320;-54
2023/08/04 03:38:33;;;;;;;1.10;0.60;;;;;;;16.78;100.00;98442.66;107058;1256;23812;-53
2023/08/04 03:41:01;;;;;;;0.50;0.50;;;;;;;16.82;100.00;98446.92;106911;1270;99470;-52
2023/08/04 03:43:30;;;;;;;2.20;0.60;;;;;;;16.84;100.00;98451.62;107083;1274;22521;-52
2023/08/04 03:45:59;;;;;;;1.20;0.70;;;;;;;16.85;100.00;98449.39;108754;1268;22521;-49
2023/08/04 03:48:28;;;;;;;0.50;0.50;;;;;;;16.88;100.00;98461.27;106855;1267;99318;-54
2023/08/04 03:50:57;;;;;;;1.80;0.60;;;;;;;16.92;100.00;98466.55;107015;1272;24344;-55
2023/08/04 03:53:28;;;;;;;3.80;0.70;;;;;;;16.94;100.00;98465.24;106931;1272;99191;-51
2023/08/04 03:55:56;;;;;;;2.00;0.80;;;;;;;16.97;100.00;98467.42;106918;1270;22754;-53
2023/08/04 03:58:25;;;;;;;0.90;0.70;;;;;;;16.99;100.00;98470.41;106863;1267;99651;-52
2023/08/04 04:00:56;;;;;;;2.20;0.60;;;;;;;17.03;100.00;98471.33;106980;1272;24898;-53
2023/08/04 04:03:25;;;;;;;0.80;0.70;;;;;;;17.04;100.00;98474.84;106920;1268;25230;-54
2023/08/04 04:05:57;;;;;;;0.90;0.60;;;;;;;17.04;100.00;98479.23;106923;1269;99249;-53
2023/08/04 04:08:26;;;;;;;1.00;0.70;;;;;;;17.06;100.00;98487.39;106957;1271;24303;-52
2023/08/04 04:10:58;;;;;;;1.50;1.10;;;;;;;17.07;100.00;98486.19;106892;1273;99459;-52
2023/08/04 04:13:30;;;;;;;1.90;0.80;;;;;;;17.09;100.00;98492.89;106864;1267;25337;-54
2023/08/04 04:16:01;;;;;;;1.60;0.70;;;;;;;17.11;100.00;98497.78;106897;1267;23973;-51
2023/08/04 04:18:30;;;;;;;1.60;1.10;;;;;;;17.13;100.00;98505.50;106941;1275;100714;-52
2023/08/04 04:20:59;;;;;;;1.00;0.70;;;;;;;17.15;100.00;98504.23;106992;1269;23902;-53
2023/08/04 04:23:28;;;;;;;1.40;0.60;;;;;;;17.19;100.00;98507.02;107010;1272;99253;-52
2023/08/04 04:25:57;;;;;;;0.70;0.70;;;;;;;17.22;100.00;98509.90;106942;1267;25350;-51
2023/08/04 04:28:26;;;;;;;1.50;0.60;;;;;;;17.25;100.00;98514.09;106836;1273;99950;-53
2023/08/04 04:31:02;;;;;;;2.00;0.90;;;;;;;17.24;100.00;98516.05;107124;1275;22619;-52
2023/08/04 04:33:34;;;;;;;1.20;1.10;;;;;;;17.23;100.00;98525.80;106995;1272;22520;-53
2023/08/04 04:36:03;;;;;;;0.60;0.60;;;;;;;17.22;100.00;98523.48;106926;1274;99265;-55
2023/08/04 04:38:32;;;;;;;1.30;0.70;;;;;;;17.23;100.00;98527.98;107093;1272;22528;-56
2023/08/04 04:41:02;;;;;;;1.60;0.70;;;;;;;17.26;100.00;98528.75;106975;1272;99880;-52
2023/08/04 04:43:31;;;;;;;2.30;1.10;;;;;;;17.30;100.00;98530.64;106985;1273;24420;-55
2023/08/04 04:46:00;;;;;;;1.30;0.70;;;;;;;17.37;100.00;98525.56;107074;1267;25284;-53
2023/08/04 04:48:31;;;;;;;1.60;0.70;;;;;;;17.48;100.00;98525.44;106898;1269;99769;-53
2023/08/04 04:51:00;;;;;;;0.90;0.60;;;;;;;17.65;100.00;98521.20;106972;1267;22528;-52
2023/08/04 04:53:29;;;;;;;1.50;0.90;;;;;;;17.85;100.00;98523.47;107109;1263;99746;-53
2023/08/04 04:56:06;;;;;;;0.90;0.70;;;;;;;18.13;100.00;98528.71;107089;1272;25284;-54
2023/08/04 04:58:35;;;;;;;1.70;0.90;;;;;;;18.37;100.00;98526.90;106770;1267;99417;-50
2023/08/04 05:01:05;;;;;;;1.80;0.80;;;;;;;18.52;100.00;98534.58;107006;1274;25332;-54
2023/08/04 05:03:33;;;;;;;3.60;0.70;;;;;;;18.70;100.00;98535.45;107011;1267;25332;-52
2023/08/04 05:06:05;;;;;;;2.00;0.70;;;;;;;18.92;100.00;98542.23;106859;1274;99296;-52
2023/08/04 05:08:33;;;;;;;0.90;0.50;;;;;;;19.00;100.00;98537.19;107020;1271;25320;-54
2023/08/04 05:11:02;;;;;;;0.70;0.60;;;;;;;18.92;100.00;98538.17;106841;1273;99460;-55
2023/08/04 05:13:32;;;;;;;1.10;0.70;;;;;;;18.91;100.00;98537.62;106940;1273;22540;-52
2023/08/04 05:16:00;;;;;;;1.80;0.80;;;;;;;18.99;100.00;98534.31;106920;1267;24235;-53
2023/08/04 05:18:29;;;;;;;1.90;0.90;;;;;;;18.90;100.00;98533.45;107696;1263;100116;-54
2023/08/04 05:20:58;;;;;;;1.30;0.70;;;;;;;18.77;100.00;98536.16;107187;1267;22528;-53
2023/08/04 05:23:27;;;;;;;1.30;0.80;;;;;;;18.75;100.00;98539.59;106807;1273;99267;-53
2023/08/04 05:25:55;;;;;;;0.90;0.80;;;;;;;18.75;100.00;98538.69;106988;1271;24118;-53
2023/08/04 05:28:30;;;;;;;1.40;0.70;;;;;;;18.83;100.00;98538.40;106896;1269;99443;-53
2023/08/04 05:31:04;;;;;;;2.10;0.80;;;;;;;18.81;100.00;98540.33;107084;1272;22637;-53
2023/08/04 05:33:32;;;;;;;1.90;0.90;;;;;;;18.86;100.00;98540.92;107014;1254;25450;-57
2023/08/04 05:36:05;;;;;;;1.30;0.70;;;;;;;19.15;100.00;98545.27;106914;1273;99271;-53
2023/08/04 05:38:34;;;;;;;2.00;1.10;;;;;;;19.22;100.00;98538.02;106967;1275;25284;-54
2023/08/04 05:41:04;;;;;;;2.50;0.80;;;;;;;19.23;100.00;98541.44;106918;1267;99435;-51
2023/08/04 05:43:33;;;;;;;0.90;0.70;;;;;;;19.28;100.00;98539.65;106961;1271;23107;-54
2023/08/04 05:46:05;;;;;;;0.90;0.80;;;;;;;19.31;100.00;98547.88;106983;1269;24377;-51
2023/08/04 05:48:35;;;;;;;2.00;0.80;;;;;;;19.47;100.00;98553.05;106830;1267;99216;-54
2023/08/04 05:51:03;;;;;;;1.10;0.90;;;;;;;19.59;100.00;98558.24;107187;1259;22520;-53
2023/08/04 05:53:33;;;;;;;0.90;0.80;;;;;;;19.54;100.00;98558.89;106835;1261;99269;-56
2023/08/04 05:56:03;;;;;;;1.00;0.80;;;;;;;19.53;100.00;98563.98;107059;1272;24331;-53
2023/08/04 05:58:31;;;;;;;2.00;0.90;;;;;;;19.56;100.00;98566.06;106973;1267;99520;-55
2023/08/04 06:01:01;;;;;;;1.60;0.90;;;;;;;19.61;100.00;98562.35;107226;1271;22544;-57
2023/08/04 06:03:34;;;;;;;1.60;0.90;;;;;;;19.57;100.00;98564.42;106380;1269;805641;-55
2023/08/04 06:06:04;;;;;;;0.60;0.60;;;;;;;19.62;100.00;98570.42;106794;1274;99657;-53
2023/08/04 06:08:34;;;;;;;1.50;0.80;;;;;;;19.82;100.00;98574.90;107039;1270;22627;-53
2023/08/04 06:11:05;;;;;;;1.40;0.90;;;;;;;19.91;100.00;98575.56;106865;1266;99309;-55
2023/08/04 06:13:34;;;;;;;2.20;0.90;;;;;;;19.97;100.00;98584.67;106967;1267;24208;-52
2023/08/04 06:16:03;;;;;;;3.40;0.90;;;;;;;20.11;100.00;98587.02;107022;1273;25583;-53
2023/08/04 06:18:33;;;;;;;0.80;0.70;;;;;;;20.18;100.00;98591.08;106878;1264;99395;-52
2023/08/04 06:21:02;;;;;;;1.30;0.70;;;;;;;20.22;100.00;98590.87;107030;1267;25399;-57
2023/08/04 06:23:31;;;;;;;2.60;1.50;;;;;;;20.11;100.00;98591.33;106877;1267;99647;-53
2023/08/04 06:26:00;;;;;;;1.10;0.60;;;;;;;20.29;100.00;98592.46;107083;1267;25340;-53
2023/08/04 06:28:29;;;;;;;2.60;0.80;;;;;;;20.45;100.00;98594.30;106961;1267;99393;-50
2023/08/04 06:31:01;;;;;;;0.90;0.60;;;;;;;20.53;100.00;98591.68;106913;1270;25459;-53
2023/08/04 06:33:30;;;;;;;3.60;1.20;;;;;;;20.65;100.00;98602.73;106848;1269;25426;-54
2023/08/04 06:36:01;;;;;;;2.30;0.60;;;;;;;20.73;100.00;98614.79;106770;1268;99324;-53
2023/08/04 06:38:33;;;;;;;1.10;0.60;;;;;;;20.69;100.00;98620.48;106962;1267;22626;-52
2023/08/04 06:41:04;;;;;;;1.50;0.70;;;;;;;20.78;100.00;98626.66;106859;1267;99444;-56
2023/08/04 06:43:36;;;;;;;0.70;0.50;;;;;;;20.93;100.00;98633.02;106645;1272;22630;-53
2023/08/04 06:46:07;;;;;;;0.50;0.50;;;;;;;21.11;100.00;98639.69;106813;1270;25343;-50
2023/08/04 06:48:36;;;;;;;1.40;0.80;;;;;;;21.16;100.00;98643.02;106866;1267;99140;-52
2023/08/04 06:51:08;;;;;;;1.30;0.60;;;;;;;21.35;100.00;98646.05;106831;1270;24263;-55
2023/08/04 06:53:40;;;;;;;2.40;0.90;;;;;;;21.58;100.00;98644.40;106750;1269;99277;-53
2023/08/04 06:56:09;;;;;;;1.50;0.80;;;;;;;21.71;100.00;98647.77;106792;1270;24237;-52
2023/08/04 06:58:38;;;;;;;2.10;0.80;;;;;;;21.87;100.00;98654.83;106701;1269;99701;-54
2023/08/04 07:01:08;;;;;;;4.70;1.70;;;;;;;22.00;100.00;98656.88;106881;1271;25381;-54
2023/08/04 07:03:38;;;;;;;1.50;0.80;;;;;;;22.40;100.00;98651.89;106905;1269;22528;-55
2023/08/04 07:06:07;;;;;;;1.10;0.70;;;;;;;22.74;100.00;98647.34;106695;1270;99349;-59
2023/08/04 07:08:36;;;;;;;0.80;0.50;;;;;;;22.75;100.00;98654.45;106839;1276;25469;-57
2023/08/04 07:11:14;;;;;;;1.80;0.80;;;;;;;22.95;100.00;98658.42;106786;1270;99255;-57
2023/08/04 07:13:46;;;;;;;0.90;0.50;;;;;;;23.17;100.00;98658.40;106941;1269;24312;-56
2023/08/04 07:16:18;;;;;;;0.80;0.70;;;;;;;23.92;100.00;98662.04;106925;1275;25559;-53
2023/08/04 07:18:47;;;;;;;2.00;0.60;;;;;;;24.31;100.00;98665.06;106807;1270;25366;-54
2023/08/04 07:21:42;;;;;;;0.70;0.40;;;;;;;24.45;99.94;98665.88;106844;1269;22915;-55
2023/08/04 07:24:14;;;;;;;1.10;0.50;;;;;;;24.42;98.98;98671.98;106652;1270;101216;-55
2023/08/04 07:26:43;;;;;;;5.30;0.80;;;;;;;24.33;99.52;98666.91;107053;1270;24234;-57
2023/08/04 07:29:12;;;;;;;0.50;0.40;;;;;;;24.95;100.00;98679.16;106865;1270;99111;-55
2023/08/04 07:31:44;;;;;;;2.30;0.50;;;;;;;25.65;99.82;98681.44;106947;1269;22534;-55
2023/08/04 07:34:14;;;;;;;1.60;0.50;;;;;;;26.02;98.60;98687.58;107339;1270;24052;-58
2023/08/04 07:36:47;;;;;;;0.80;0.50;;;;;;;26.22;97.86;98695.14;106886;1272;99722;-56
2023/08/04 07:39:16;;;;;;;1.10;0.50;;;;;;;26.94;97.68;98695.05;106865;1270;24244;-57
2023/08/04 07:41:46;;;;;;;4.90;1.00;;;;;;;26.96;94.97;98700.41;107362;1269;99582;-54
2023/08/04 07:44:18;;;;;;;0.90;0.50;;;;;;;26.48;93.51;98701.52;106742;1274;22546;-53
2023/08/04 07:46:49;;;;;;;1.00;0.60;;;;;;;26.02;93.29;98698.15;106768;1276;99328;-55
2023/08/04 07:49:18;;;;;;;1.30;0.80;;;;;;;26.50;95.52;98694.90;106870;1272;24206;-54
2023/08/04 07:51:47;;;;;;;0.90;0.50;;;;;;;27.22;93.26;98698.50;106961;1267;22540;-54
2023/08/04 07:54:21;;;;;;;1.80;0.40;;;;;;;27.35;91.45;98708.70;106931;1267;99040;-56
2023/08/04 07:56:49;;;;;;;0.60;0.50;;;;;;;27.41;89.76;98715.27;107033;1273;22513;-54
2023/08/04 07:59:22;;;;;;;1.70;0.60;;;;;;;27.56;91.46;98720.13;106986;1272;100082;-55
2023/08/04 08:01:55;;;;;;;2.50;0.60;;;;;;;28.78;90.24;98718.15;107217;1270;22537;-57
2023/08/04 08:04:25;;;;;;;1.00;0.70;;;;;;;28.69;86.91;98729.77;107101;1267;99736;-57
2023/08/04 08:06:54;;;;;;;3.60;0.50;;;;;;;28.37;86.25;98734.38;107151;1267;22521;-59
2023/08/04 08:09:32;;;;;;;1.40;0.50;;;;;;;28.54;86.20;98731.85;107004;1269;24202;-58
2023/08/04 08:12:01;;;;;;;3.50;0.70;;;;;;;28.16;83.34;98745.10;107213;1267;99548;-56
2023/08/04 08:14:33;;;;;;;0.90;0.40;;;;;;;27.54;82.71;98756.11;106854;1267;25658;-56
2023/08/04 08:17:02;;;;;;;1.80;0.80;;;;;;;26.88;82.37;98763.39;107060;1267;99312;-56
2023/08/04 08:19:31;;;;;;;1.90;0.60;;;;;;;26.43;82.31;98769.56;107141;1266;22518;-55
2023/08/04 08:22:00;;;;;;;0.80;0.40;;;;;;;26.09;81.85;98772.97;107304;1267;22530;-55
2023/08/04 08:24:29;;;;;;;1.00;0.50;;;;;;;25.71;81.29;98775.26;107097;1267;100112;-55
2023/08/04 08:26:58;;;;;;;1.00;0.60;;;;;;;25.29;80.71;98779.67;106974;1269;23897;-54
2023/08/04 08:29:27;;;;;;;0.80;0.50;;;;;;;24.80;79.83;98775.34;108001;1267;100819;-57
2023/08/04 08:31:56;;;;;;;1.60;0.70;;;;;;;24.59;80.66;98777.70;107354;1267;25502;-55
2023/08/04 08:34:24;;;;;;;0.50;0.40;;;;;;;26.36;84.43;98777.60;107353;1267;99330;-55
2023/08/04 08:36:54;;;;;;;0.70;0.50;;;;;;;28.51;81.40;98776.95;106904;1267;25285;-56
2023/08/04 08:39:23;;;;;;;0.90;0.60;;;;;;;28.46;78.51;98775.84;106837;1267;22525;-57
2023/08/04 08:41:52;;;;;;;2.60;0.70;;;;;;;27.66;76.92;98785.60;106960;1259;99081;-59
2023/08/04 08:44:21;;;;;;;1.60;0.50;;;;;;;27.57;77.83;98787.52;106921;1268;22757;-56
2023/08/04 08:46:52;;;;;;;0.80;0.40;;;;;;;29.62;80.64;98787.91;106884;1260;99305;-57
2023/08/04 08:49:31;;;;;;;2.30;0.60;;;;;;;31.82;78.18;98782.02;108071;1269;24294;-57
2023/08/04 08:52:09;;;;;;;0.60;0.40;;;;;;;34.56;80.07;98786.84;108455;1256;22518;-55
2023/08/04 08:54:51;;;;;;;4.70;0.60;;;;;;;37.86;78.17;98783.81;106973;1260;22524;-58
2023/08/04 08:57:20;;;;;;;0.40;0.30;;;;;;;39.91;76.07;98776.59;106895;1269;22523;-56
2023/08/04 08:59:51;;;;;;;0.80;0.30;;;;;;;41.68;73.93;98774.78;106968;1269;99370;-56
2023/08/04 09:02:25;;;;;;;1.10;0.40;;;;;;;43.09;70.53;98785.14;107031;1267;25464;-56
2023/08/04 09:04:54;;;;;;;1.40;0.50;;;;;;;43.37;66.94;98789.13;106986;1260;99299;-57
2023/08/04 09:07:43;;;;;;;1.60;0.40;;;;;;;43.53;64.44;98791.71;107069;1270;25225;-56
2023/08/04 09:10:17;;;;;;;1.60;0.80;;;;;;;44.41;59.06;98784.73;106840;1270;22452;-59
2023/08/04 09:12:49;;;;;;;1.70;0.60;;;;;;;45.37;55.77;98784.05;107039;1268;99927;-61
2023/08/04 09:15:19;;;;;;;0.70;0.50;;;;;;;45.01;49.81;98790.74;106931;1269;24240;-56
2023/08/04 09:17:53;;;;;;;1.80;0.60;;;;;;;44.83;49.00;98792.47;106859;1270;99119;-56
2023/08/04 09:20:29;;;;;;;1.40;0.50;;;;;;;45.30;45.85;98792.16;107111;1267;22609;-56
2023/08/04 09:23:00;;;;;;;1.80;0.80;;;;;;;42.95;43.17;98799.54;107083;1268;99564;-56
2023/08/04 09:25:40;;;;;;;1.30;0.50;;;;;;;41.04;41.89;98798.89;107008;1267;22553;-56
2023/08/04 09:28:18;;;;;;;2.70;0.70;;;;;;;40.25;40.11;98801.98;106946;1267;25468;-56
2023/08/04 09:31:08;;;;;;;0.40;0.40;;;;;;;38.55;39.03;98808.40;106950;1267;99081;-54
2023/08/04 09:33:41;;;;;;;1.20;0.40;;;;;;;37.60;39.29;98811.23;106949;1267;25347;-56
2023/08/04 09:36:17;;;;;;;1.70;0.80;;;;;;;36.78;37.83;98807.80;107092;1267;99697;-57
2023/08/04 09:38:47;;;;;;;0.80;0.30;;;;;;;36.90;38.10;98810.75;107048;1269;22511;-53
2023/08/04 09:41:17;;;;;;;2.50;0.40;;;;;;;36.95;37.98;98811.37;106929;1272;99133;-54
2023/08/04 09:43:49;;;;;;;2.00;0.70;;;;;;;38.03;37.84;98811.36;106991;1267;22531;-54
2023/08/04 09:46:21;;;;;;;0.60;0.40;;;;;;;40.09;38.09;98812.71;107134;1251;22523;-55
2023/08/04 09:48:52;;;;;;;1.20;0.60;;;;;;;42.44;37.55;98820.13;106879;1270;24202;-54
2023/08/04 09:51:27;;;;;;;1.70;0.80;;;;;;;44.95;37.32;98820.21;106873;1270;22544;-57
2023/08/04 09:53:59;;;;;;;1.40;0.70;;;;;;;46.51;36.14;98820.38;107123;1267;99101;-57
2023/08/04 09:56:32;;;;;;;0.90;0.70;;;;;;;46.92;33.07;98818.71;106928;1267;22630;-56
2023/08/04 09:59:05;;;;;;;0.80;0.70;;;;;;;45.35;31.00;98822.98;107032;1267;99260;-54
2023/08/04 10:01:46;;;;;;;1.30;0.40;;;;;;;41.81;30.18;98831.02;106870;1270;22518;-56
2023/08/04 10:04:24;;;;;;;1.50;0.50;;;;;;;39.62;29.85;98832.27;107256;1269;22965;-57
2023/08/04 10:07:22;;;;;;;1.70;0.50;;;;;;;37.06;29.57;98830.36;107119;1267;25284;-55
2023/08/04 10:09:58;;;;;;;0.60;0.40;;;;;;;37.14;30.63;98828.88;107197;1266;22712;-56
2023/08/04 10:12:30;;;;;;;0.70;0.50;;;;;;;38.49;30.98;98831.33;106963;1267;99802;-55
2023/08/04 10:14:59;;;;;;;0.30;0.30;;;;;;;41.69;31.79;98831.20;107050;1267;25422;-57
2023/08/04 10:17:29;;;;;;;2.10;0.50;;;;;;;44.29;31.00;98836.15;106798;1267;99211;-60
2023/08/04 10:20:09;;;;;;;0.90;0.60;;;;;;;45.96;31.06;98836.26;107174;1267;25308;-58
2023/08/04 10:22:48;;;;;;;1.60;1.30;;;;;;;47.76;29.89;98839.22;106916;1268;99335;-56
2023/08/04 10:25:27;;;;;;;2.70;1.90;;;;;;;49.60;29.71;98842.20;106969;1269;25233;-58
2023/08/04 10:27:57;;;;;;;3.10;2.90;;;;;;;50.11;28.95;98843.70;106782;1263;22524;-56
2023/08/04 10:30:27;;;;;;;3.40;3.20;;;;;;;50.76;27.72;98845.64;107002;1266;100784;-57
2023/08/04 10:33:21;;;;;;;5.50;5.10;;;;;;;52.31;27.24;98845.39;107029;1267;22514;-56
2023/08/04 10:36:27;;;;;;;6.50;6.20;;;;;;;53.05;25.29;98845.80;107059;1267;99116;-57
2023/08/04 10:38:58;;;;;;;9.90;9.40;;;;;;;53.81;24.46;98847.43;106913;1267;22647;-56
2023/08/04 10:41:30;;;;;;;12.50;11.80;;;;;;;54.19;23.08;98852.02;106833;1267;99096;-59
2023/08/04 10:44:00;;;;;;;;;;;;;;;54.21;21.87;98851.58;107065;1266;24356;-58
2023/08/04 10:46:32;;;;;;;18.70;17.70;;;;;;;54.55;20.85;98843.31;106994;1267;22536;-58
2023/08/04 10:49:02;;;;;;;21.70;20.40;;;;;;;55.12;20.49;98852.14;106973;1267;24206;-62
2023/08/04 10:51:31;;;;;;;15.10;14.10;;;;;;;54.79;19.92;98856.11;106880;1266;25288;-66
2023/08/04 10:54:03;;;;;;;13.10;12.30;;;;;;;52.84;19.76;98858.48;106981;1270;99451;-65
2023/08/04 10:56:39;;;;;;;7.90;7.40;;;;;;;51.25;18.73;98851.84;106920;1270;22536;-63
2023/08/04 10:59:08;;;;;;;7.10;4.40;;;;;;;48.34;18.74;98851.71;107003;1269;100867;-62
2023/08/04 11:01:38;;;;;;;4.60;2.30;;;;;;;46.20;19.18;98852.80;107040;1267;22589;-68
2023/08/04 11:04:07;;;;;;;2.40;2.20;;;;;;;46.45;19.91;98854.85;106907;1272;25291;-66
2023/08/04 11:06:37;;;;;;;2.00;1.90;;;;;;;47.69;19.99;98863.80;107013;1266;99368;-59
2023/08/04 11:09:07;;;;;;;2.60;2.40;;;;;;;48.88;20.35;98866.55;107096;1268;25284;-68
2023/08/04 11:11:35;;;;;;;2.70;2.50;;;;;;;50.41;20.08;98862.32;106773;1269;99345;-65
2023/08/04 11:14:08;;;;;;;2.90;1.70;;;;;;;49.21;19.90;98855.91;106944;1267;25649;-61
2023/08/04 11:16:37;;;;;;;1.20;0.90;;;;;;;46.76;19.98;98857.95;106968;1266;100648;-64
2023/08/04 11:19:07;;;;;;;0.90;0.70;;;;;;;44.77;20.28;98859.14;106861;1269;22630;-60
2023/08/04 11:21:37;;;;;;;0.40;0.40;;;;;;;42.74;20.66;98864.63;106950;1272;23901;-60
2023/08/04 11:24:10;;;;;;;0.50;0.40;;;;;;;40.70;20.95;98862.79;106926;1266;99841;-61
2023/08/04 11:26:39;;;;;;;0.60;0.40;;;;;;;38.18;21.28;98868.09;107053;1266;25265;-59
2023/08/04 11:29:07;;;;;;;1.30;0.50;;;;;;;35.78;22.26;98879.52;106940;1269;100035;-68
2023/08/04 11:31:37;;;;;;;1.50;0.40;;;;;;;34.22;23.09;98891.63;107040;1267;25344;-61
2023/08/04 11:34:14;;;;;;;1.30;0.50;;;;;;;33.07;23.96;98893.70;106964;1267;25486;-63
2023/08/04 11:36:43;;;;;;;0.90;0.30;;;;;;;31.91;24.99;98907.34;106920;1266;99526;-63
2023/08/04 11:39:12;;;;;;;0.60;0.20;;;;;;;30.87;25.89;98913.74;107090;1269;25504;-64